sensor_id;sensor_type;location;lat;lon;timestamp;temperature;humidity
15095;DHT22;7648;52.264;9.632;2023-02-21T00:00:50;9.30;99.90
15095;DHT22;7648;52.264;9.632;2023-02-21T00:05:11;9.30;99.90
15095;DHT22;7648;52.264;9.632;2023-02-21T00:09:31;9.40;99.90
15095;DHT22;7648;52.264;9.632;2023-02-21T00:13:50;9.40;99.90
15095;DHT22;7648;52.264;9.632;2023-02-21T00:18:10;9.30;99.90
15095;DHT22;7648;52.264;9.632;2023-02-21T00:22:30;9.30;99.90
15095;DHT22;7648;52.264;9.632;2023-02-21T00:26:50;9.30;99.90
15095;DHT22;7648;52.264;9.632;2023-02-21T00:31:10;9.30;99.90
15095;DHT22;7648;52.264;9.632;2023-02-21T00:35:29;9.30;99.90
15095;DHT22;7648;52.264;9.632;2023-02-21T00:39:50;9.30;99.90
15095;DHT22;7648;52.264;9.632;2023-02-21T00:44:09;9.30;99.90
15095;DHT22;7648;52.264;9.632;2023-02-21T00:48:29;9.20;99.90
15095;DHT22;7648;52.264;9.632;2023-02-21T00:52:48;9.20;99.90
15095;DHT22;7648;52.264;9.632;2023-02-21T00:57:09;9.20;99.90
15095;DHT22;7648;52.264;9.632;2023-02-21T01:01:28;9.20;99.90
15095;DHT22;7648;52.264;9.632;2023-02-21T01:05:47;9.20;99.90
15095;DHT22;7648;52.264;9.632;2023-02-21T01:10:07;9.20;99.90
15095;DHT22;7648;52.264;9.632;2023-02-21T01:14:27;9.20;99.90
15095;DHT22;7648;52.264;9.632;2023-02-21T01:18:48;9.20;99.90
15095;DHT22;7648;52.264;9.632;2023-02-21T01:23:07;9.20;99.90
15095;DHT22;7648;52.264;9.632;2023-02-21T01:27:26;9.20;99.90
15095;DHT22;7648;52.264;9.632;2023-02-21T01:31:47;9.20;99.90
15095;DHT22;7648;52.264;9.632;2023-02-21T01:36:08;9.20;99.90
15095;DHT22;7648;52.264;9.632;2023-02-21T01:40:30;9.20;99.90
15095;DHT22;7648;52.264;9.632;2023-02-21T01:49:43;9.30;99.90
15095;DHT22;7648;52.264;9.632;2023-02-21T01:54:03;9.30;99.90
15095;DHT22;7648;52.264;9.632;2023-02-21T01:58:26;9.30;99.90
15095;DHT22;7648;52.264;9.632;2023-02-21T02:02:50;9.30;99.90
15095;DHT22;7648;52.264;9.632;2023-02-21T02:07:12;9.30;99.90
15095;DHT22;7648;52.264;9.632;2023-02-21T02:12:09;9.30;99.90
15095;DHT22;7648;52.264;9.632;2023-02-21T02:16:30;9.30;99.90
15095;DHT22;7648;52.264;9.632;2023-02-21T02:25:55;9.40;99.90
15095;DHT22;7648;52.264;9.632;2023-02-21T02:34:48;9.40;99.90
15095;DHT22;7648;52.264;9.632;2023-02-21T02:38:59;9.40;99.90
15095;DHT22;7648;52.264;9.632;2023-02-21T02:43:09;9.50;99.90
15095;DHT22;7648;52.264;9.632;2023-02-21T02:47:15;9.50;99.90
15095;DHT22;7648;52.264;9.632;2023-02-21T02:51:19;9.50;99.90
15095;DHT22;7648;52.264;9.632;2023-02-21T02:55:38;9.50;99.90
15095;DHT22;7648;52.264;9.632;2023-02-21T02:59:44;9.40;99.90
15095;DHT22;7648;52.264;9.632;2023-02-21T03:03:57;9.40;99.90
15095;DHT22;7648;52.264;9.632;2023-02-21T03:08:10;9.50;99.90
15095;DHT22;7648;52.264;9.632;2023-02-21T03:12:19;9.40;99.90
15095;DHT22;7648;52.264;9.632;2023-02-21T03:16:27;9.40;99.90
15095;DHT22;7648;52.264;9.632;2023-02-21T03:20:31;9.40;99.90
15095;DHT22;7648;52.264;9.632;2023-02-21T03:24:36;9.40;99.90
15095;DHT22;7648;52.264;9.632;2023-02-21T03:28:40;9.40;99.90
15095;DHT22;7648;52.264;9.632;2023-02-21T03:32:45;9.40;99.90
15095;DHT22;7648;52.264;9.632;2023-02-21T03:36:48;9.40;99.90
15095;DHT22;7648;52.264;9.632;2023-02-21T03:40:53;9.40;99.90
15095;DHT22;7648;52.264;9.632;2023-02-21T03:44:56;9.40;99.90
15095;DHT22;7648;52.264;9.632;2023-02-21T03:48:58;9.30;99.90
15095;DHT22;7648;52.264;9.632;2023-02-21T03:53:03;9.30;99.90
15095;DHT22;7648;52.264;9.632;2023-02-21T03:57:08;9.40;99.90
15095;DHT22;7648;52.264;9.632;2023-02-21T04:01:15;9.40;99.90
15095;DHT22;7648;52.264;9.632;2023-02-21T04:05:17;9.50;99.90
15095;DHT22;7648;52.264;9.632;2023-02-21T04:09:20;9.50;99.90
15095;DHT22;7648;52.264;9.632;2023-02-21T04:13:24;9.40;99.90
15095;DHT22;7648;52.264;9.632;2023-02-21T04:17:27;9.50;99.90
15095;DHT22;7648;52.264;9.632;2023-02-21T04:21:30;9.50;99.90
15095;DHT22;7648;52.264;9.632;2023-02-21T04:25:34;9.50;99.90
15095;DHT22;7648;52.264;9.632;2023-02-21T04:29:43;9.50;99.90
15095;DHT22;7648;52.264;9.632;2023-02-21T04:33:44;9.40;99.90
15095;DHT22;7648;52.264;9.632;2023-02-21T04:37:52;9.40;99.90
15095;DHT22;7648;52.264;9.632;2023-02-21T04:41:54;9.40;99.90
15095;DHT22;7648;52.264;9.632;2023-02-21T04:45:57;9.40;99.90
15095;DHT22;7648;52.264;9.632;2023-02-21T04:49:59;9.40;99.90
15095;DHT22;7648;52.264;9.632;2023-02-21T04:54:01;9.40;99.90
15095;DHT22;7648;52.264;9.632;2023-02-21T04:58:03;9.40;99.90
15095;DHT22;7648;52.264;9.632;2023-02-21T05:02:06;9.40;99.90
15095;DHT22;7648;52.264;9.632;2023-02-21T05:06:08;9.40;99.90
15095;DHT22;7648;52.264;9.632;2023-02-21T05:10:10;9.40;99.90
15095;DHT22;7648;52.264;9.632;2023-02-21T05:14:12;9.40;99.90
15095;DHT22;7648;52.264;9.632;2023-02-21T05:18:16;9.30;99.90
15095;DHT22;7648;52.264;9.632;2023-02-21T05:22:23;9.30;99.90
15095;DHT22;7648;52.264;9.632;2023-02-21T05:26:26;9.30;99.90
15095;DHT22;7648;52.264;9.632;2023-02-21T05:30:30;9.30;99.90
15095;DHT22;7648;52.264;9.632;2023-02-21T05:34:33;9.30;99.90
15095;DHT22;7648;52.264;9.632;2023-02-21T05:38:43;9.30;99.90
15095;DHT22;7648;52.264;9.632;2023-02-21T05:42:45;9.30;99.90
15095;DHT22;7648;52.264;9.632;2023-02-21T05:46:47;9.30;99.90
15095;DHT22;7648;52.264;9.632;2023-02-21T05:50:50;9.30;99.90
15095;DHT22;7648;52.264;9.632;2023-02-21T05:54:52;9.30;99.90
15095;DHT22;7648;52.264;9.632;2023-02-21T05:58:54;9.30;99.90
15095;DHT22;7648;52.264;9.632;2023-02-21T06:02:56;9.30;99.90
15095;DHT22;7648;52.264;9.632;2023-02-21T06:06:59;9.30;99.90
15095;DHT22;7648;52.264;9.632;2023-02-21T06:11:01;9.30;99.90
15095;DHT22;7648;52.264;9.632;2023-02-21T06:15:03;9.30;99.90
15095;DHT22;7648;52.264;9.632;2023-02-21T06:19:07;9.30;99.90
15095;DHT22;7648;52.264;9.632;2023-02-21T06:23:11;9.20;99.90
15095;DHT22;7648;52.264;9.632;2023-02-21T06:27:13;9.30;99.90
15095;DHT22;7648;52.264;9.632;2023-02-21T06:31:16;9.30;99.90
15095;DHT22;7648;52.264;9.632;2023-02-21T06:35:18;9.30;99.90
15095;DHT22;7648;52.264;9.632;2023-02-21T06:39:21;9.30;99.90
15095;DHT22;7648;52.264;9.632;2023-02-21T06:43:23;9.30;99.90
15095;DHT22;7648;52.264;9.632;2023-02-21T06:47:25;9.30;99.90
15095;DHT22;7648;52.264;9.632;2023-02-21T06:51:27;9.40;99.90
15095;DHT22;7648;52.264;9.632;2023-02-21T06:55:31;9.40;99.90
15095;DHT22;7648;52.264;9.632;2023-02-21T06:59:33;9.40;99.90
15095;DHT22;7648;52.264;9.632;2023-02-21T07:03:38;9.40;99.90
15095;DHT22;7648;52.264;9.632;2023-02-21T07:07:40;9.40;99.90
15095;DHT22;7648;52.264;9.632;2023-02-21T07:11:43;9.40;99.90
15095;DHT22;7648;52.264;9.632;2023-02-21T07:15:46;9.40;99.90
15095;DHT22;7648;52.264;9.632;2023-02-21T07:19:48;9.40;99.90
15095;DHT22;7648;52.264;9.632;2023-02-21T07:23:50;9.40;99.90
15095;DHT22;7648;52.264;9.632;2023-02-21T07:27:53;9.40;99.90
15095;DHT22;7648;52.264;9.632;2023-02-21T07:31:55;9.30;99.90
15095;DHT22;7648;52.264;9.632;2023-02-21T07:35:57;9.40;99.90
15095;DHT22;7648;52.264;9.632;2023-02-21T07:39:59;9.40;99.90
15095;DHT22;7648;52.264;9.632;2023-02-21T07:44:02;9.30;99.90
15095;DHT22;7648;52.264;9.632;2023-02-21T07:48:04;9.30;99.90
15095;DHT22;7648;52.264;9.632;2023-02-21T07:52:06;9.30;99.90
15095;DHT22;7648;52.264;9.632;2023-02-21T07:56:08;9.30;99.90
15095;DHT22;7648;52.264;9.632;2023-02-21T08:00:12;9.30;99.90
15095;DHT22;7648;52.264;9.632;2023-02-21T08:04:14;9.30;99.90
15095;DHT22;7648;52.264;9.632;2023-02-21T08:08:19;9.40;99.90
15095;DHT22;7648;52.264;9.632;2023-02-21T08:12:22;9.40;99.90
15095;DHT22;7648;52.264;9.632;2023-02-21T08:16:25;9.30;99.90
15095;DHT22;7648;52.264;9.632;2023-02-21T08:20:27;9.30;99.90
15095;DHT22;7648;52.264;9.632;2023-02-21T08:24:29;9.40;99.90
15095;DHT22;7648;52.264;9.632;2023-02-21T08:28:31;9.40;99.90
15095;DHT22;7648;52.264;9.632;2023-02-21T08:32:35;9.40;99.90
15095;DHT22;7648;52.264;9.632;2023-02-21T08:36:38;9.40;99.90
15095;DHT22;7648;52.264;9.632;2023-02-21T08:40:40;9.50;99.90
15095;DHT22;7648;52.264;9.632;2023-02-21T08:44:43;9.50;99.90
15095;DHT22;7648;52.264;9.632;2023-02-21T08:48:46;9.60;99.90
15095;DHT22;7648;52.264;9.632;2023-02-21T08:52:49;9.60;99.90
15095;DHT22;7648;52.264;9.632;2023-02-21T08:56:50;9.70;99.90
15095;DHT22;7648;52.264;9.632;2023-02-21T09:00:54;9.70;99.90
15095;DHT22;7648;52.264;9.632;2023-02-21T09:04:57;9.80;99.90
15095;DHT22;7648;52.264;9.632;2023-02-21T09:08:59;9.80;99.90
15095;DHT22;7648;52.264;9.632;2023-02-21T09:13:02;9.70;99.90
15095;DHT22;7648;52.264;9.632;2023-02-21T09:17:06;9.70;99.90
15095;DHT22;7648;52.264;9.632;2023-02-21T09:21:10;9.70;99.90
15095;DHT22;7648;52.264;9.632;2023-02-21T09:25:12;9.70;99.90
15095;DHT22;7648;52.264;9.632;2023-02-21T09:29:14;9.70;99.90
15095;DHT22;7648;52.264;9.632;2023-02-21T09:33:17;9.70;99.90
15095;DHT22;7648;52.264;9.632;2023-02-21T09:37:20;9.70;99.90
15095;DHT22;7648;52.264;9.632;2023-02-21T09:41:22;9.70;99.90
15095;DHT22;7648;52.264;9.632;2023-02-21T09:45:25;9.70;99.90
15095;DHT22;7648;52.264;9.632;2023-02-21T09:49:31;9.90;99.90
15095;DHT22;7648;52.264;9.632;2023-02-21T09:53:37;9.80;99.90
15095;DHT22;7648;52.264;9.632;2023-02-21T09:57:39;9.80;99.90
15095;DHT22;7648;52.264;9.632;2023-02-21T10:01:52;9.90;99.90
15095;DHT22;7648;52.264;9.632;2023-02-21T10:06:02;9.90;99.90
15095;DHT22;7648;52.264;9.632;2023-02-21T10:10:12;10.00;99.90
15095;DHT22;7648;52.264;9.632;2023-02-21T10:14:23;10.00;99.90
15095;DHT22;7648;52.264;9.632;2023-02-21T10:18:34;10.10;99.90
15095;DHT22;7648;52.264;9.632;2023-02-21T10:22:39;10.20;99.90
15095;DHT22;7648;52.264;9.632;2023-02-21T10:26:45;10.30;99.90
15095;DHT22;7648;52.264;9.632;2023-02-21T10:30:51;10.30;99.90
15095;DHT22;7648;52.264;9.632;2023-02-21T10:34:54;10.40;99.90
15095;DHT22;7648;52.264;9.632;2023-02-21T10:39:03;10.40;99.90
15095;DHT22;7648;52.264;9.632;2023-02-21T10:43:12;10.40;99.90
15095;DHT22;7648;52.264;9.632;2023-02-21T10:47:19;10.40;99.90
15095;DHT22;7648;52.264;9.632;2023-02-21T10:51:31;10.40;99.90
15095;DHT22;7648;52.264;9.632;2023-02-21T10:55:34;10.40;99.90
15095;DHT22;7648;52.264;9.632;2023-02-21T10:59:40;10.50;99.90
15095;DHT22;7648;52.264;9.632;2023-02-21T11:03:44;10.60;99.90
15095;DHT22;7648;52.264;9.632;2023-02-21T11:07:56;10.60;99.90
15095;DHT22;7648;52.264;9.632;2023-02-21T11:12:01;10.60;99.90
15095;DHT22;7648;52.264;9.632;2023-02-21T11:16:10;10.60;99.90
15095;DHT22;7648;52.264;9.632;2023-02-21T11:20:17;10.60;99.90
15095;DHT22;7648;52.264;9.632;2023-02-21T11:24:19;10.70;99.90
15095;DHT22;7648;52.264;9.632;2023-02-21T11:28:22;10.70;99.90
15095;DHT22;7648;52.264;9.632;2023-02-21T11:32:30;10.70;99.90
15095;DHT22;7648;52.264;9.632;2023-02-21T11:36:34;10.70;99.90
15095;DHT22;7648;52.264;9.632;2023-02-21T11:40:41;10.60;99.90
15095;DHT22;7648;52.264;9.632;2023-02-21T11:44:44;10.60;99.90
15095;DHT22;7648;52.264;9.632;2023-02-21T11:48:56;10.70;99.90
15095;DHT22;7648;52.264;9.632;2023-02-21T11:53:05;10.80;99.90
15095;DHT22;7648;52.264;9.632;2023-02-21T11:57:12;11.10;99.90
15095;DHT22;7648;52.264;9.632;2023-02-21T12:01:22;11.20;99.90
15095;DHT22;7648;52.264;9.632;2023-02-21T12:05:38;11.30;99.90
15095;DHT22;7648;52.264;9.632;2023-02-21T12:09:47;11.40;99.90
15095;DHT22;7648;52.264;9.632;2023-02-21T12:14:04;11.60;99.90
15095;DHT22;7648;52.264;9.632;2023-02-21T12:18:23;11.60;99.90
15095;DHT22;7648;52.264;9.632;2023-02-21T12:22:40;11.70;99.90
15095;DHT22;7648;52.264;9.632;2023-02-21T12:26:49;11.60;99.90
15095;DHT22;7648;52.264;9.632;2023-02-21T12:40:06;11.40;99.90
15095;DHT22;7648;52.264;9.632;2023-02-21T12:44:12;11.30;99.90
15095;DHT22;7648;52.264;9.632;2023-02-21T12:48:20;11.40;99.90
15095;DHT22;7648;52.264;9.632;2023-02-21T12:52:29;11.30;99.90
15095;DHT22;7648;52.264;9.632;2023-02-21T12:56:39;11.30;99.90
15095;DHT22;7648;52.264;9.632;2023-02-21T13:00:44;11.30;99.90
15095;DHT22;7648;52.264;9.632;2023-02-21T13:04:53;11.30;99.90
15095;DHT22;7648;52.264;9.632;2023-02-21T13:09:08;11.50;99.90
15095;DHT22;7648;52.264;9.632;2023-02-21T13:13:16;11.60;99.90
15095;DHT22;7648;52.264;9.632;2023-02-21T13:17:20;11.70;99.90
15095;DHT22;7648;52.264;9.632;2023-02-21T13:21:30;11.50;99.90
15095;DHT22;7648;52.264;9.632;2023-02-21T13:25:46;11.40;99.90
15095;DHT22;7648;52.264;9.632;2023-02-21T13:29:59;11.30;99.90
15095;DHT22;7648;52.264;9.632;2023-02-21T13:34:05;11.30;99.90
15095;DHT22;7648;52.264;9.632;2023-02-21T13:38:10;11.30;99.90
15095;DHT22;7648;52.264;9.632;2023-02-21T13:42:16;11.30;99.90
15095;DHT22;7648;52.264;9.632;2023-02-21T13:50:46;11.40;99.90
15095;DHT22;7648;52.264;9.632;2023-02-21T13:55:19;11.50;99.90
15095;DHT22;7648;52.264;9.632;2023-02-21T13:59:34;11.40;99.90
15095;DHT22;7648;52.264;9.632;2023-02-21T14:03:38;11.20;99.90
15095;DHT22;7648;52.264;9.632;2023-02-21T14:12:08;11.00;99.90
15095;DHT22;7648;52.264;9.632;2023-02-21T14:16:18;11.00;99.90
15095;DHT22;7648;52.264;9.632;2023-02-21T14:20:24;10.90;99.90
15095;DHT22;7648;52.264;9.632;2023-02-21T14:24:30;10.90;99.90
15095;DHT22;7648;52.264;9.632;2023-02-21T14:28:57;10.90;99.90
15095;DHT22;7648;52.264;9.632;2023-02-21T14:33:17;10.90;99.90
15095;DHT22;7648;52.264;9.632;2023-02-21T14:37:25;10.80;99.90
15095;DHT22;7648;52.264;9.632;2023-02-21T14:41:36;10.80;99.90
15095;DHT22;7648;52.264;9.632;2023-02-21T14:45:56;10.80;99.90
15095;DHT22;7648;52.264;9.632;2023-02-21T14:50:29;10.80;99.90
15095;DHT22;7648;52.264;9.632;2023-02-21T14:54:57;10.90;99.90
15095;DHT22;7648;52.264;9.632;2023-02-21T15:03:36;10.90;99.90
15095;DHT22;7648;52.264;9.632;2023-02-21T15:07:47;10.90;99.90
15095;DHT22;7648;52.264;9.632;2023-02-21T15:11:54;10.80;99.90
15095;DHT22;7648;52.264;9.632;2023-02-21T15:15:59;10.80;99.90
15095;DHT22;7648;52.264;9.632;2023-02-21T15:20:05;10.70;99.90
15095;DHT22;7648;52.264;9.632;2023-02-21T15:24:13;10.70;99.90
15095;DHT22;7648;52.264;9.632;2023-02-21T15:28:22;10.70;99.90
15095;DHT22;7648;52.264;9.632;2023-02-21T15:32:25;10.70;99.90
15095;DHT22;7648;52.264;9.632;2023-02-21T15:36:28;10.60;99.90
15095;DHT22;7648;52.264;9.632;2023-02-21T15:40:30;10.60;99.90
15095;DHT22;7648;52.264;9.632;2023-02-21T15:44:37;10.60;99.90
15095;DHT22;7648;52.264;9.632;2023-02-21T15:48:41;10.50;99.90
15095;DHT22;7648;52.264;9.632;2023-02-21T15:52:45;10.40;99.90
15095;DHT22;7648;52.264;9.632;2023-02-21T15:57:01;10.40;99.90
15095;DHT22;7648;52.264;9.632;2023-02-21T16:01:06;10.40;99.90
15095;DHT22;7648;52.264;9.632;2023-02-21T16:05:22;10.30;99.90
15095;DHT22;7648;52.264;9.632;2023-02-21T16:09:26;10.30;99.90
15095;DHT22;7648;52.264;9.632;2023-02-21T16:13:34;10.20;99.90
15095;DHT22;7648;52.264;9.632;2023-02-21T16:17:39;10.20;99.90
15095;DHT22;7648;52.264;9.632;2023-02-21T16:21:42;10.20;99.90
15095;DHT22;7648;52.264;9.632;2023-02-21T16:25:55;10.10;99.90
15095;DHT22;7648;52.264;9.632;2023-02-21T16:29:57;10.20;99.90
15095;DHT22;7648;52.264;9.632;2023-02-21T16:34:00;10.10;99.90
15095;DHT22;7648;52.264;9.632;2023-02-21T16:38:02;10.10;99.90
15095;DHT22;7648;52.264;9.632;2023-02-21T16:42:06;10.10;99.90
15095;DHT22;7648;52.264;9.632;2023-02-21T16:46:08;10.10;99.90
15095;DHT22;7648;52.264;9.632;2023-02-21T16:50:16;10.10;99.90
15095;DHT22;7648;52.264;9.632;2023-02-21T16:54:18;10.00;99.90
15095;DHT22;7648;52.264;9.632;2023-02-21T16:58:24;10.00;99.90
15095;DHT22;7648;52.264;9.632;2023-02-21T17:02:26;10.00;99.90
15095;DHT22;7648;52.264;9.632;2023-02-21T17:06:29;10.00;99.90
15095;DHT22;7648;52.264;9.632;2023-02-21T17:10:32;10.00;99.90
15095;DHT22;7648;52.264;9.632;2023-02-21T17:14:34;10.00;99.90
15095;DHT22;7648;52.264;9.632;2023-02-21T17:18:36;10.00;99.90
15095;DHT22;7648;52.264;9.632;2023-02-21T17:22:39;9.90;99.90
15095;DHT22;7648;52.264;9.632;2023-02-21T17:26:41;9.90;99.90
15095;DHT22;7648;52.264;9.632;2023-02-21T17:30:43;9.90;99.90
15095;DHT22;7648;52.264;9.632;2023-02-21T17:34:45;9.80;99.90
15095;DHT22;7648;52.264;9.632;2023-02-21T17:38:48;9.90;99.90
15095;DHT22;7648;52.264;9.632;2023-02-21T17:42:49;9.80;99.90
15095;DHT22;7648;52.264;9.632;2023-02-21T17:46:53;9.80;99.90
15095;DHT22;7648;52.264;9.632;2023-02-21T17:50:56;9.80;99.90
15095;DHT22;7648;52.264;9.632;2023-02-21T17:54:59;9.80;99.90
15095;DHT22;7648;52.264;9.632;2023-02-21T17:59:07;9.80;99.90
15095;DHT22;7648;52.264;9.632;2023-02-21T18:03:08;9.70;99.90
15095;DHT22;7648;52.264;9.632;2023-02-21T18:07:10;9.70;99.90
15095;DHT22;7648;52.264;9.632;2023-02-21T18:11:15;9.70;99.90
15095;DHT22;7648;52.264;9.632;2023-02-21T18:15:19;9.70;99.90
15095;DHT22;7648;52.264;9.632;2023-02-21T18:19:21;9.70;99.90
15095;DHT22;7648;52.264;9.632;2023-02-21T18:23:23;9.70;99.90
15095;DHT22;7648;52.264;9.632;2023-02-21T18:27:26;9.60;99.90
15095;DHT22;7648;52.264;9.632;2023-02-21T18:31:28;9.70;99.90
15095;DHT22;7648;52.264;9.632;2023-02-21T18:35:30;9.60;99.90
15095;DHT22;7648;52.264;9.632;2023-02-21T18:39:31;9.60;99.90
15095;DHT22;7648;52.264;9.632;2023-02-21T18:43:35;9.60;99.90
15095;DHT22;7648;52.264;9.632;2023-02-21T18:47:37;9.60;99.90
15095;DHT22;7648;52.264;9.632;2023-02-21T18:51:39;9.60;99.90
15095;DHT22;7648;52.264;9.632;2023-02-21T18:55:41;9.60;99.90
15095;DHT22;7648;52.264;9.632;2023-02-21T18:59:44;9.60;99.90
15095;DHT22;7648;52.264;9.632;2023-02-21T19:03:48;9.60;99.90
15095;DHT22;7648;52.264;9.632;2023-02-21T19:07:49;9.60;99.90
15095;DHT22;7648;52.264;9.632;2023-02-21T19:11:53;9.60;99.90
15095;DHT22;7648;52.264;9.632;2023-02-21T19:15:56;9.60;99.90
15095;DHT22;7648;52.264;9.632;2023-02-21T19:19:59;9.60;99.90
15095;DHT22;7648;52.264;9.632;2023-02-21T19:24:01;9.60;99.90
15095;DHT22;7648;52.264;9.632;2023-02-21T19:28:03;9.60;99.90
15095;DHT22;7648;52.264;9.632;2023-02-21T19:32:08;9.60;99.90
15095;DHT22;7648;52.264;9.632;2023-02-21T19:36:11;9.60;99.90
15095;DHT22;7648;52.264;9.632;2023-02-21T19:40:12;9.60;99.90
15095;DHT22;7648;52.264;9.632;2023-02-21T19:44:14;9.60;99.90
15095;DHT22;7648;52.264;9.632;2023-02-21T19:48:18;9.60;99.90
15095;DHT22;7648;52.264;9.632;2023-02-21T19:52:21;9.60;99.90
15095;DHT22;7648;52.264;9.632;2023-02-21T19:56:23;9.60;99.90
15095;DHT22;7648;52.264;9.632;2023-02-21T20:00:25;9.60;99.90
15095;DHT22;7648;52.264;9.632;2023-02-21T20:04:28;9.60;99.90
15095;DHT22;7648;52.264;9.632;2023-02-21T20:08:30;9.50;99.90
15095;DHT22;7648;52.264;9.632;2023-02-21T20:12:32;9.50;99.90
15095;DHT22;7648;52.264;9.632;2023-02-21T20:16:37;9.50;99.90
15095;DHT22;7648;52.264;9.632;2023-02-21T20:20:40;9.50;99.90
15095;DHT22;7648;52.264;9.632;2023-02-21T20:24:43;9.50;99.90
15095;DHT22;7648;52.264;9.632;2023-02-21T20:28:46;9.50;99.90
15095;DHT22;7648;52.264;9.632;2023-02-21T20:32:48;9.50;99.90
15095;DHT22;7648;52.264;9.632;2023-02-21T20:36:52;9.50;99.90
15095;DHT22;7648;52.264;9.632;2023-02-21T20:40:54;9.50;99.90
15095;DHT22;7648;52.264;9.632;2023-02-21T20:44:56;9.40;99.90
15095;DHT22;7648;52.264;9.632;2023-02-21T20:48:57;9.50;99.90
15095;DHT22;7648;52.264;9.632;2023-02-21T20:53:02;9.50;99.90
15095;DHT22;7648;52.264;9.632;2023-02-21T20:57:05;9.50;99.90
15095;DHT22;7648;52.264;9.632;2023-02-21T21:01:11;9.50;99.90
15095;DHT22;7648;52.264;9.632;2023-02-21T21:05:14;9.40;99.90
15095;DHT22;7648;52.264;9.632;2023-02-21T21:09:17;9.40;99.90
15095;DHT22;7648;52.264;9.632;2023-02-21T21:13:28;9.40;99.90
15095;DHT22;7648;52.264;9.632;2023-02-21T21:17:30;9.40;99.90
15095;DHT22;7648;52.264;9.632;2023-02-21T21:21:32;9.40;99.90
15095;DHT22;7648;52.264;9.632;2023-02-21T21:25:35;9.40;99.90
15095;DHT22;7648;52.264;9.632;2023-02-21T21:29:37;9.40;99.90
15095;DHT22;7648;52.264;9.632;2023-02-21T21:33:41;9.40;99.90
15095;DHT22;7648;52.264;9.632;2023-02-21T21:37:43;9.40;99.90
15095;DHT22;7648;52.264;9.632;2023-02-21T21:41:49;9.40;99.90
15095;DHT22;7648;52.264;9.632;2023-02-21T21:45:52;9.40;99.90
15095;DHT22;7648;52.264;9.632;2023-02-21T21:49:54;9.30;99.90
15095;DHT22;7648;52.264;9.632;2023-02-21T21:53:55;9.30;99.90
15095;DHT22;7648;52.264;9.632;2023-02-21T21:58:00;9.30;99.90
15095;DHT22;7648;52.264;9.632;2023-02-21T22:02:10;9.30;99.90
15095;DHT22;7648;52.264;9.632;2023-02-21T22:06:13;9.30;99.90
15095;DHT22;7648;52.264;9.632;2023-02-21T22:10:15;9.30;99.90
15095;DHT22;7648;52.264;9.632;2023-02-21T22:14:21;9.30;99.90
15095;DHT22;7648;52.264;9.632;2023-02-21T22:18:23;9.20;99.90
15095;DHT22;7648;52.264;9.632;2023-02-21T22:22:24;9.20;99.90
15095;DHT22;7648;52.264;9.632;2023-02-21T22:26:28;9.20;99.90
15095;DHT22;7648;52.264;9.632;2023-02-21T22:30:32;9.20;99.90
15095;DHT22;7648;52.264;9.632;2023-02-21T22:34:34;9.10;99.90
15095;DHT22;7648;52.264;9.632;2023-02-21T22:38:37;9.10;99.90
15095;DHT22;7648;52.264;9.632;2023-02-21T22:42:39;9.10;99.90
15095;DHT22;7648;52.264;9.632;2023-02-21T22:46:44;9.10;99.90
15095;DHT22;7648;52.264;9.632;2023-02-21T22:50:46;9.10;99.90
15095;DHT22;7648;52.264;9.632;2023-02-21T22:54:48;9.00;99.90
15095;DHT22;7648;52.264;9.632;2023-02-21T22:58:51;9.10;99.90
15095;DHT22;7648;52.264;9.632;2023-02-21T23:02:55;9.00;99.90
15095;DHT22;7648;52.264;9.632;2023-02-21T23:06:58;9.10;99.90
15095;DHT22;7648;52.264;9.632;2023-02-21T23:11:00;9.00;99.90
15095;DHT22;7648;52.264;9.632;2023-02-21T23:15:02;9.00;99.90
15095;DHT22;7648;52.264;9.632;2023-02-21T23:19:06;9.00;99.90
15095;DHT22;7648;52.264;9.632;2023-02-21T23:23:08;9.00;99.90
15095;DHT22;7648;52.264;9.632;2023-02-21T23:27:12;9.00;99.90
15095;DHT22;7648;52.264;9.632;2023-02-21T23:31:14;9.00;99.90
15095;DHT22;7648;52.264;9.632;2023-02-21T23:35:18;9.00;99.90
15095;DHT22;7648;52.264;9.632;2023-02-21T23:39:20;9.00;99.90
15095;DHT22;7648;52.264;9.632;2023-02-21T23:43:23;9.10;99.90
15095;DHT22;7648;52.264;9.632;2023-02-21T23:47:25;9.00;99.90
15095;DHT22;7648;52.264;9.632;2023-02-21T23:51:28;9.10;99.90
15095;DHT22;7648;52.264;9.632;2023-02-21T23:55:30;9.00;99.90
15095;DHT22;7648;52.264;9.632;2023-02-21T23:59:35;9.00;99.90
